Time;durP1;ratioP1;P1;durP2;ratioP2;P2;SDS_P1;SDS_P2;PMS_P1;PMS_P2;Temp;Humidity;BMP_temperature;BMP_pressure;BME280_temperature;BME280_humidity;BME280_pressure;Samples;Min_cycle;Max_cycle;Signal;HPM_P1;HPM_P2
2022/03/10 00:00:20;;;;;;;15.60;8.90;;;;;;;-3.83;51.54;97735.40;110040;1247;70534;-66
2022/03/10 00:03:09;;;;;;;11.60;6.40;;;;;;;-3.82;51.44;97731.47;109866;1248;66604;-63
2022/03/10 00:05:40;;;;;;;12.40;6.30;;;;;;;-3.81;51.44;97734.52;110013;1247;69373;-62
2022/03/10 00:08:09;;;;;;;11.70;5.80;;;;;;;-3.75;50.73;97731.56;110080;1247;58922;-65
2022/03/10 00:10:41;;;;;;;10.30;6.20;;;;;;;-3.72;50.70;97735.45;110029;1247;58929;-66
2022/03/10 00:13:11;;;;;;;9.00;5.90;;;;;;;-3.69;50.31;97735.41;110070;1247;68968;-65
2022/03/10 00:15:42;;;;;;;8.20;4.90;;;;;;;-3.66;49.98;97734.85;110097;1247;68031;-66
2022/03/10 00:18:12;;;;;;;;;;;;;;;-3.66;49.81;97735.02;110018;1247;69298;-65
2022/03/10 00:20:44;;;;;;;7.90;5.30;;;;;;;-3.65;49.84;97735.70;110001;1247;58929;-66
2022/03/10 00:23:14;;;;;;;7.80;4.70;;;;;;;-3.67;50.12;97737.27;110104;1247;58876;-66
2022/03/10 00:25:45;;;;;;;5.40;4.40;;;;;;;-3.67;49.90;97738.80;110136;1246;70568;-64
2022/03/10 00:28:15;;;;;;;8.20;4.70;;;;;;;-3.63;49.29;97740.27;110056;1247;68664;-67
2022/03/10 00:30:49;;;;;;;9.30;5.60;;;;;;;-3.63;49.37;97738.91;110105;1247;69486;-64
2022/03/10 00:33:19;;;;;;;;;;;;;;;-3.63;49.41;97740.63;110097;1247;58949;-62
2022/03/10 00:35:49;;;;;;;7.00;4.90;;;;;;;-3.66;49.56;97739.64;110099;1247;58828;-62
2022/03/10 00:38:19;;;;;;;7.50;3.50;;;;;;;-3.68;49.09;97742.90;110025;1247;70613;-60
2022/03/10 00:40:51;;;;;;;8.10;5.10;;;;;;;-3.65;49.00;97743.38;110092;1247;68583;-61
2022/03/10 00:43:22;;;;;;;6.80;5.10;;;;;;;-3.69;49.89;97751.42;110062;1247;68453;-61
2022/03/10 00:45:51;;;;;;;8.60;5.10;;;;;;;-3.69;49.66;97752.96;110092;1247;58928;-61
2022/03/10 00:48:23;;;;;;;8.80;5.70;;;;;;;-3.73;49.52;97754.71;110055;1247;58910;-65
2022/03/10 00:50:53;;;;;;;10.10;5.40;;;;;;;-3.77;49.58;97762.07;110143;1247;69898;-67
2022/03/10 00:53:23;;;;;;;9.20;5.20;;;;;;;-3.80;50.28;97762.62;110099;1247;68578;-66
2022/03/10 00:55:53;;;;;;;6.60;4.50;;;;;;;-3.84;50.69;97761.45;110084;1247;68621;-66
2022/03/10 00:58:24;;;;;;;9.90;6.40;;;;;;;-3.84;50.07;97760.95;110055;1248;58937;-65
2022/03/10 01:00:55;;;;;;;7.80;4.60;;;;;;;-3.84;49.76;97764.17;110110;1247;58922;-66
2022/03/10 01:03:26;;;;;;;6.90;4.80;;;;;;;-3.86;50.05;97764.72;109846;1247;69838;-63
2022/03/10 01:05:56;;;;;;;;;;;;;;;-3.86;49.83;97767.09;109974;1247;66894;-61
2022/03/10 01:08:26;;;;;;;6.50;4.80;;;;;;;-3.85;49.79;97768.96;110113;1247;68439;-62
2022/03/10 01:10:56;;;;;;;8.10;4.60;;;;;;;-3.86;49.70;97767.44;110106;1247;58890;-63
2022/03/10 01:13:27;;;;;;;10.20;5.50;;;;;;;-3.90;49.68;97766.11;110086;1247;58832;-63
2022/03/10 01:15:57;;;;;;;6.30;3.90;;;;;;;-3.92;50.67;97767.34;110081;1247;70003;-62
2022/03/10 01:18:28;;;;;;;7.90;5.20;;;;;;;-3.94;50.73;97765.99;110039;1247;68434;-62
2022/03/10 01:20:58;;;;;;;4.70;3.60;;;;;;;-3.97;50.92;97765.52;110027;1247;69378;-65
2022/03/10 01:23:29;;;;;;;6.70;3.90;;;;;;;-3.98;50.69;97764.31;110101;1247;58889;-68
2022/03/10 01:26:00;;;;;;;6.90;4.10;;;;;;;-3.98;50.12;97769.59;109865;1247;58863;-65
2022/03/10 01:28:30;;;;;;;9.20;5.10;;;;;;;-3.99;50.34;97773.17;110084;1247;69777;-63
2022/03/10 01:30:59;;;;;;;6.30;4.80;;;;;;;-4.01;50.47;97771.16;110116;1247;67916;-65
2022/03/10 01:33:30;;;;;;;6.30;4.40;;;;;;;-4.04;50.62;97771.69;110089;1247;69468;-65
2022/03/10 01:36:01;;;;;;;6.80;4.50;;;;;;;-4.05;50.27;97770.02;110102;1247;59021;-65
2022/03/10 01:38:32;;;;;;;7.80;4.20;;;;;;;-4.09;50.89;97771.73;109835;1247;58938;-66
2022/03/10 01:41:02;;;;;;;6.30;4.70;;;;;;;-4.10;50.55;97773.45;110111;1247;70555;-65
2022/03/10 01:43:32;;;;;;;5.00;3.30;;;;;;;-4.14;50.95;97775.02;110143;1247;68366;-67
2022/03/10 01:46:02;;;;;;;8.10;4.90;;;;;;;-4.17;51.12;97774.52;110088;1247;68645;-66
2022/03/10 01:48:33;;;;;;;6.80;4.60;;;;;;;-4.22;51.31;97775.94;109892;1250;58923;-65
2022/03/10 01:51:03;;;;;;;7.90;4.60;;;;;;;-4.27;51.98;97778.53;110077;1247;58838;-65
2022/03/10 01:53:34;;;;;;;5.80;3.50;;;;;;;-4.35;52.37;97778.60;110052;1247;70789;-62
2022/03/10 01:56:05;;;;;;;9.70;4.50;;;;;;;-4.41;51.95;97781.70;110101;1247;67820;-64
2022/03/10 01:58:36;;;;;;;7.30;5.20;;;;;;;-4.47;51.85;97786.02;110021;1247;68893;-65
2022/03/10 02:01:07;;;;;;;10.50;6.90;;;;;;;-4.52;52.30;97783.83;110052;1247;58948;-64
2022/03/10 02:03:40;;;;;;;7.50;5.80;;;;;;;-4.59;53.13;97785.23;110063;1247;58934;-64
2022/03/10 02:06:11;;;;;;;7.70;4.50;;;;;;;-4.63;52.37;97785.10;110103;1247;70719;-66
2022/03/10 02:11:31;;;;;;;8.80;5.80;;;;;;;-4.72;53.46;97790.77;110056;1247;69379;-64
2022/03/10 02:17:19;;;;;;;;;;;;;;;-4.76;52.69;97792.48;110070;1247;58895;-66
2022/03/10 02:19:40;;;;;;;8.20;4.40;;;;;;;-4.89;52.62;97794.77;110078;1247;70658;-62
2022/03/10 02:22:12;;;;;;;4.80;4.10;;;;;;;-4.95;52.66;97793.95;110074;1247;68421;-61
2022/03/10 02:24:43;;;;;;;10.70;6.30;;;;;;;-5.00;53.45;97795.18;110123;1247;68488;-61
2022/03/10 02:27:21;;;;;;;12.10;8.10;;;;;;;-5.06;53.96;97798.77;110072;1247;58961;-65
2022/03/10 02:29:57;;;;;;;10.10;5.90;;;;;;;-5.13;54.73;97799.83;110071;1247;58815;-66
2022/03/10 02:32:28;;;;;;;9.10;6.20;;;;;;;-5.21;54.79;97802.07;110172;1246;69942;-67
2022/03/10 02:34:59;;;;;;;10.20;5.60;;;;;;;-5.28;55.04;97799.55;110106;1247;68579;-67
2022/03/10 02:37:30;;;;;;;9.10;5.20;;;;;;;-5.38;55.61;97800.59;110094;1247;68684;-64
2022/03/10 02:40:01;;;;;;;8.00;4.90;;;;;;;-5.46;55.74;97801.31;109813;1248;58914;-66
2022/03/10 02:42:32;;;;;;;7.80;4.50;;;;;;;-5.53;55.76;97802.17;110183;1247;58847;-66
2022/03/10 02:45:04;;;;;;;7.90;4.70;;;;;;;-5.59;56.08;97807.80;110232;1246;69769;-65
2022/03/10 02:47:35;;;;;;;6.80;4.70;;;;;;;-5.64;55.90;97805.27;110161;1247;68580;-67
2022/03/10 02:50:07;;;;;;;6.20;4.40;;;;;;;-5.67;56.27;97807.65;110293;1246;68765;-63
2022/03/10 02:52:38;;;;;;;7.80;4.70;;;;;;;-5.68;56.45;97809.18;110066;1247;59122;-63
2022/03/10 02:55:09;;;;;;;10.60;5.00;;;;;;;-5.67;56.42;97812.57;109787;1247;659472;-63
2022/03/10 02:57:39;;;;;;;8.10;4.60;;;;;;;-5.65;56.33;97818.35;109895;1248;70711;-63
2022/03/10 03:00:10;;;;;;;9.40;5.10;;;;;;;-5.64;55.67;97817.15;110128;1247;68472;-64
2022/03/10 03:02:41;;;;;;;8.00;5.40;;;;;;;-5.63;55.67;97816.31;110227;1247;69229;-62
2022/03/10 03:05:13;;;;;;;8.50;5.90;;;;;;;-5.61;55.42;97819.70;110141;1247;58938;-63
2022/03/10 03:07:45;;;;;;;10.50;5.60;;;;;;;-5.59;54.93;97817.30;110229;1247;58874;-61
2022/03/10 03:10:15;;;;;;;7.60;4.50;;;;;;;-5.59;55.07;97824.27;110002;1248;70653;-62
2022/03/10 03:12:50;;;;;;;6.70;5.00;;;;;;;-5.56;55.00;97825.11;110202;1247;68453;-64
2022/03/10 03:15:20;;;;;;;5.20;3.30;;;;;;;-5.53;54.52;97835.30;110032;1247;69418;-67
2022/03/10 03:17:51;;;;;;;5.90;4.40;;;;;;;-5.48;54.17;97832.23;110037;1247;58940;-62
2022/03/10 03:20:22;;;;;;;4.10;2.90;;;;;;;-5.44;53.99;97836.13;110060;1248;58907;-67
2022/03/10 03:22:52;;;;;;;6.80;4.30;;;;;;;-5.40;53.51;97835.27;110044;1249;70744;-64
2022/03/10 03:25:23;;;;;;;4.90;3.00;;;;;;;-5.38;53.80;97836.61;110109;1247;68802;-61
2022/03/10 03:27:53;;;;;;;6.10;3.70;;;;;;;-5.36;53.59;97837.64;110170;1246;68629;-64
2022/03/10 03:30:23;;;;;;;;;;;;;;;-5.36;54.14;97836.63;110261;1247;59260;-65
2022/03/10 03:32:53;;;;;;;5.20;3.20;;;;;;;-5.34;54.32;97841.02;110221;1246;58970;-65
2022/03/10 03:35:23;;;;;;;;;;;;;;;-5.34;54.46;97840.35;110257;1246;70741;-65
2022/03/10 03:37:53;;;;;;;4.30;2.80;;;;;;;-5.34;54.39;97844.59;110222;1247;68428;-64
2022/03/10 03:40:23;;;;;;;;;;;;;;;-5.35;54.60;97844.27;110227;1245;67553;-66
2022/03/10 03:42:54;;;;;;;14.60;6.70;;;;;;;-5.37;55.35;97847.64;110251;1247;59011;-68
2022/03/10 03:45:24;;;;;;;;;;;;;;;-5.39;56.40;97852.76;110020;1247;58880;-66
2022/03/10 03:47:54;;;;;;;9.70;5.10;;;;;;;-5.40;56.84;97850.39;110180;1247;70512;-62
2022/03/10 03:50:25;;;;;;;5.10;4.10;;;;;;;-5.43;57.10;97851.59;110195;1247;68549;-66
2022/03/10 03:52:55;;;;;;;;;;;;;;;-5.45;56.61;97854.30;110080;1247;68800;-65
2022/03/10 03:55:25;;;;;;;5.10;4.40;;;;;;;-5.45;55.45;97857.71;110133;1247;58924;-65
2022/03/10 03:57:55;;;;;;;9.40;4.90;;;;;;;-5.47;55.01;97859.57;109891;1248;58926;-65
2022/03/10 04:00:24;;;;;;;6.90;4.10;;;;;;;-5.47;56.01;97862.45;109872;1247;69785;-65
2022/03/10 04:02:54;;;;;;;5.60;3.50;;;;;;;-5.47;55.05;97862.95;110231;1246;68572;-63
2022/03/10 04:05:25;;;;;;;5.70;3.80;;;;;;;-5.49;56.27;97867.40;110096;1247;67653;-65
2022/03/10 04:07:55;;;;;;;7.40;5.00;;;;;;;-5.53;57.64;97866.55;110115;1247;58850;-64
2022/03/10 04:10:28;;;;;;;6.60;4.90;;;;;;;-5.55;57.62;97869.94;109819;1247;58917;-66
2022/03/10 04:12:59;;;;;;;5.50;3.00;;;;;;;-5.56;57.03;97869.61;110108;1247;70721;-66
2022/03/10 04:15:30;;;;;;;8.50;5.10;;;;;;;-5.55;55.93;97872.31;110134;1247;67848;-64
2022/03/10 04:18:01;;;;;;;5.30;3.80;;;;;;;-5.55;56.48;97867.56;110080;1247;69450;-61
2022/03/10 04:20:31;;;;;;;5.20;3.90;;;;;;;-5.54;55.80;97874.20;110155;1247;58894;-61
2022/03/10 04:23:01;;;;;;;9.70;5.50;;;;;;;-5.53;55.61;97875.39;110195;1246;58920;-62
2022/03/10 04:25:31;;;;;;;;;;;;;;;-5.51;56.04;97880.13;110055;1246;69932;-65
2022/03/10 04:28:00;;;;;;;5.10;3.40;;;;;;;-5.46;54.87;97881.98;110147;1247;67703;-62
2022/03/10 04:30:34;;;;;;;7.40;4.00;;;;;;;-5.43;54.94;97880.30;110015;1248;69390;-65
2022/03/10 04:33:05;;;;;;;9.10;4.80;;;;;;;-5.39;54.73;97882.83;110191;1247;58937;-65
2022/03/10 04:35:34;;;;;;;7.10;4.70;;;;;;;-5.36;54.80;97885.03;110328;1246;58872;-68
2022/03/10 04:38:04;;;;;;;5.20;4.30;;;;;;;-5.34;54.91;97887.76;110114;1246;70625;-66
2022/03/10 04:40:34;;;;;;;7.90;4.60;;;;;;;-5.34;54.87;97891.65;110080;1247;68542;-68
2022/03/10 04:43:03;;;;;;;5.50;4.10;;;;;;;-5.34;54.85;97891.48;110200;1247;69376;-62
2022/03/10 04:45:33;;;;;;;6.60;4.10;;;;;;;-5.36;55.19;97898.95;110091;1247;58888;-62
2022/03/10 04:48:06;;;;;;;5.90;3.50;;;;;;;-5.39;55.58;97901.86;110116;1247;58866;-67
2022/03/10 04:50:36;;;;;;;7.20;4.10;;;;;;;-5.40;55.47;97907.80;110339;1247;69797;-64
2022/03/10 04:53:06;;;;;;;6.70;4.60;;;;;;;-5.41;55.32;97910.35;110071;1250;68513;-61
2022/03/10 04:55:36;;;;;;;5.80;4.10;;;;;;;-5.41;55.13;97912.91;110132;1247;69346;-61
2022/03/10 04:58:05;;;;;;;7.00;4.30;;;;;;;-5.38;55.72;97919.02;110084;1247;58936;-60
2022/03/10 05:00:35;;;;;;;10.40;4.80;;;;;;;-5.34;56.50;97920.87;110113;1247;58959;-65
2022/03/10 05:03:05;;;;;;;9.20;5.60;;;;;;;-5.31;56.81;97924.95;109964;1247;70000;-64
2022/03/10 05:05:34;;;;;;;7.80;4.80;;;;;;;-5.31;56.87;97930.39;110299;1247;67932;-66
2022/03/10 05:08:04;;;;;;;7.70;4.50;;;;;;;-5.31;56.87;97928.19;110378;1247;69459;-67
2022/03/10 05:10:34;;;;;;;6.20;4.80;;;;;;;-5.32;57.42;97936.49;110395;1247;58875;-63
2022/03/10 05:13:04;;;;;;;7.60;4.70;;;;;;;-5.28;57.04;97939.90;110115;1247;58878;-62
2022/03/10 05:15:34;;;;;;;6.50;3.70;;;;;;;-5.22;57.03;97946.52;110029;1247;70785;-62
2022/03/10 05:18:04;;;;;;;8.30;4.10;;;;;;;-5.17;56.85;97945.83;110310;1247;68502;-65
2022/03/10 05:20:36;;;;;;;7.10;4.90;;;;;;;-5.15;56.83;97951.27;110357;1246;68830;-65
2022/03/10 05:23:06;;;;;;;6.40;4.40;;;;;;;-5.23;58.15;97954.85;110125;1247;58941;-63
2022/03/10 05:25:39;;;;;;;7.80;4.50;;;;;;;-5.21;57.53;97956.38;110064;1248;58940;-62
2022/03/10 05:28:14;;;;;;;7.20;4.80;;;;;;;-5.19;57.48;97959.75;110116;1247;69933;-62
2022/03/10 05:30:45;;;;;;;7.50;5.50;;;;;;;-5.20;57.83;97963.51;110069;1248;67944;-65
2022/03/10 05:33:14;;;;;;;10.50;4.90;;;;;;;-5.22;57.86;97967.58;110014;1247;69228;-63
2022/03/10 05:35:44;;;;;;;10.20;5.00;;;;;;;-5.15;57.10;97970.46;110285;1247;58931;-69
2022/03/10 05:38:13;;;;;;;6.60;4.90;;;;;;;-5.07;56.99;97973.85;110072;1247;58961;-65
2022/03/10 05:40:43;;;;;;;17.40;11.80;;;;;;;-4.91;57.71;97977.38;109907;1248;70030;-64
2022/03/10 05:43:13;;;;;;;20.40;11.60;;;;;;;-4.78;57.74;97981.95;110130;1247;68695;-64
2022/03/10 05:45:43;;;;;;;;;;;;;;;-4.70;57.19;97985.31;110313;1247;69407;-66
2022/03/10 05:48:12;;;;;;;16.90;10.30;;;;;;;-4.66;56.74;97985.66;110072;1248;58870;-66
2022/03/10 05:50:44;;;;;;;18.00;11.80;;;;;;;-4.62;56.62;97992.44;110135;1248;58878;-62
2022/03/10 05:53:14;;;;;;;15.60;11.30;;;;;;;-4.59;56.47;97996.86;110238;1246;70112;-65
2022/03/10 05:55:46;;;;;;;16.60;11.70;;;;;;;-4.53;56.38;97993.60;110068;1248;68603;-65
2022/03/10 05:58:15;;;;;;;10.50;7.90;;;;;;;-4.47;56.15;97992.55;110266;1246;68658;-62
2022/03/10 06:00:47;;;;;;;15.00;9.40;;;;;;;-4.37;56.01;97997.44;110279;1247;58945;-66
2022/03/10 06:03:19;;;;;;;11.60;7.20;;;;;;;-4.25;55.66;97999.43;110324;1246;58937;-65
2022/03/10 06:05:49;;;;;;;11.60;7.40;;;;;;;-4.13;55.04;97997.33;110367;1247;69743;-63
2022/03/10 06:08:19;;;;;;;10.70;6.50;;;;;;;-4.01;54.60;98003.06;110332;1247;68674;-60
2022/03/10 06:10:50;;;;;;;10.00;7.70;;;;;;;-3.86;54.41;98003.98;109915;1248;69812;-62
2022/03/10 06:13:20;;;;;;;9.30;6.50;;;;;;;-3.71;54.29;98006.98;110040;1248;58900;-63
2022/03/10 06:15:51;;;;;;;9.00;5.80;;;;;;;-3.56;54.10;98007.54;110234;1247;58875;-62
2022/03/10 06:18:21;;;;;;;14.60;8.40;;;;;;;-3.39;54.01;98006.91;110327;1247;70779;-65
2022/03/10 06:20:51;;;;;;;11.10;7.60;;;;;;;-3.23;53.26;98011.89;110243;1247;67816;-63
2022/03/10 06:23:21;;;;;;;12.10;8.40;;;;;;;-3.05;53.74;98015.66;110360;1245;68628;-63
2022/03/10 06:25:50;;;;;;;12.40;9.00;;;;;;;-2.82;53.92;98020.03;110313;1247;58900;-65
2022/03/10 06:28:20;;;;;;;11.30;8.20;;;;;;;-2.59;53.08;98017.06;110282;1245;58823;-65
2022/03/10 06:30:50;;;;;;;10.50;7.70;;;;;;;-2.31;52.99;98020.01;110099;1248;70744;-65
2022/03/10 06:33:19;;;;;;;12.50;7.90;;;;;;;-2.05;52.44;98022.05;110131;1247;68502;-66
2022/03/10 06:35:49;;;;;;;12.00;8.80;;;;;;;-1.80;51.94;98022.42;110173;1247;68807;-61
2022/03/10 06:38:18;;;;;;;20.80;12.90;;;;;;;-1.57;52.26;98025.17;110110;1247;58969;-58
2022/03/10 06:40:47;;;;;;;20.70;11.10;;;;;;;-1.32;51.96;98028.40;110046;1248;58901;-64
2022/03/10 06:43:18;;;;;;;52.20;18.60;;;;;;;-1.14;50.22;98032.20;110157;1244;70828;-64
2022/03/10 06:45:47;;;;;;;31.00;13.10;;;;;;;-1.03;49.90;98033.73;110456;1244;67920;-66
2022/03/10 06:48:17;;;;;;;22.20;11.90;;;;;;;-0.81;50.41;98037.64;110127;1248;68618;-62
2022/03/10 06:50:46;;;;;;;10.00;7.10;;;;;;;-0.25;47.68;98039.33;110265;1245;58950;-60
2022/03/10 06:53:17;;;;;;;4.20;3.40;;;;;;;0.62;42.16;98040.58;110406;1247;58834;-65
2022/03/10 06:55:48;;;;;;;4.70;3.10;;;;;;;1.56;40.00;98040.48;110169;1247;69865;-65
2022/03/10 06:58:19;;;;;;;7.80;3.70;;;;;;;1.84;37.45;98040.39;110243;1247;68746;-63
2022/03/10 07:00:48;;;;;;;5.80;4.00;;;;;;;1.83;36.44;98041.80;110078;1247;68489;-61
2022/03/10 07:03:25;;;;;;;12.00;7.20;;;;;;;1.82;36.97;98045.95;110096;1247;58942;-63
2022/03/10 07:05:55;;;;;;;5.00;4.20;;;;;;;1.95;37.27;98045.58;110322;1247;58809;-61
2022/03/10 07:08:25;;;;;;;6.00;4.40;;;;;;;1.95;35.07;98045.59;110265;1247;70838;-63
2022/03/10 07:10:54;;;;;;;6.20;4.20;;;;;;;1.93;35.13;98052.33;110224;1247;68548;-61
2022/03/10 07:13:23;;;;;;;5.20;4.10;;;;;;;2.16;35.20;98055.81;110219;1247;68645;-62
2022/03/10 07:15:56;;;;;;;4.50;3.60;;;;;;;2.29;34.10;98054.92;110432;1247;58942;-61
2022/03/10 07:18:26;;;;;;;4.50;3.90;;;;;;;2.68;33.93;98055.30;110153;1247;59305;-66
2022/03/10 07:20:56;;;;;;;6.70;3.70;;;;;;;3.03;33.81;98058.69;110310;1247;70831;-66
2022/03/10 07:23:25;;;;;;;5.30;3.60;;;;;;;2.70;33.29;98058.34;110412;1245;67676;-69
2022/03/10 07:25:55;;;;;;;5.80;4.10;;;;;;;2.33;33.06;98058.24;110136;1248;67896;-63
2022/03/10 07:28:25;;;;;;;3.80;3.40;;;;;;;2.13;33.61;98063.32;110455;1244;58880;-62
2022/03/10 07:30:56;;;;;;;4.80;3.50;;;;;;;2.37;33.20;98060.70;110402;1245;58871;-64
2022/03/10 07:33:26;;;;;;;5.70;4.00;;;;;;;2.30;33.11;98058.00;110483;1244;70834;-63
2022/03/10 07:35:58;;;;;;;6.40;3.60;;;;;;;2.42;33.49;98057.98;110115;1247;68225;-64
2022/03/10 07:38:28;;;;;;;;;;;;;;;2.91;32.84;98060.08;110360;1244;69400;-64
2022/03/10 07:41:00;;;;;;;5.20;3.50;;;;;;;2.86;32.35;98061.61;110064;1247;58942;-64
2022/03/10 07:43:29;;;;;;;6.50;3.80;;;;;;;3.47;32.05;98066.50;110032;1248;58826;-66
2022/03/10 07:46:04;;;;;;;5.40;3.80;;;;;;;4.39;31.04;98063.72;110040;1247;71164;-67
2022/03/10 07:48:34;;;;;;;5.20;3.90;;;;;;;5.49;30.06;98064.19;110114;1248;68561;-65
2022/03/10 07:51:04;;;;;;;6.60;4.10;;;;;;;5.90;28.60;98059.20;110068;1247;69463;-62
2022/03/10 07:53:33;;;;;;;4.40;3.20;;;;;;;6.01;28.97;98055.09;110159;1247;58880;-66
2022/03/10 07:56:04;;;;;;;5.20;4.00;;;;;;;5.86;27.83;98057.79;110094;1247;58920;-65
2022/03/10 07:58:34;;;;;;;4.20;3.00;;;;;;;5.32;28.53;98059.92;110089;1248;70100;-68
2022/03/10 08:01:06;;;;;;;5.90;4.00;;;;;;;5.39;29.65;98062.06;110093;1248;68628;-63
2022/03/10 08:03:38;;;;;;;5.50;4.10;;;;;;;5.44;29.42;98062.02;110084;1248;69124;-66
2022/03/10 08:06:08;;;;;;;5.20;3.70;;;;;;;5.56;29.81;98062.70;110007;1247;58995;-66
2022/03/10 08:08:38;;;;;;;3.90;3.40;;;;;;;5.38;29.64;98062.96;110009;1250;58937;-64
2022/03/10 08:11:08;;;;;;;5.30;3.50;;;;;;;5.41;29.64;98061.26;110001;1250;70022;-64
2022/03/10 08:13:38;;;;;;;5.30;4.00;;;;;;;5.24;29.19;98059.52;110033;1250;68410;-62
2022/03/10 08:16:10;;;;;;;5.30;4.00;;;;;;;4.94;29.05;98059.73;110010;1248;69446;-63
2022/03/10 08:18:40;;;;;;;5.10;3.60;;;;;;;5.09;28.74;98062.21;110066;1247;58962;-67
2022/03/10 08:21:12;;;;;;;5.30;3.60;;;;;;;5.22;28.99;98059.11;110049;1248;58915;-66
2022/03/10 08:23:42;;;;;;;5.50;3.90;;;;;;;5.34;28.71;98061.20;109727;1248;71301;-62
2022/03/10 08:26:13;;;;;;;4.90;3.40;;;;;;;5.98;28.66;98063.02;110111;1247;68344;-64
2022/03/10 08:28:42;;;;;;;6.70;3.90;;;;;;;6.41;26.84;98055.88;109944;1250;69476;-63
2022/03/10 08:31:14;;;;;;;6.50;4.70;;;;;;;5.97;26.61;98057.83;110101;1247;58952;-66
2022/03/10 08:33:44;;;;;;;8.00;4.80;;;;;;;5.90;27.11;98058.68;110055;1247;58945;-63
2022/03/10 08:36:16;;;;;;;4.70;4.10;;;;;;;5.92;26.17;98061.35;110060;1250;69984;-63
2022/03/10 08:38:45;;;;;;;4.80;3.90;;;;;;;5.44;27.08;98060.81;110123;1247;67985;-66
2022/03/10 08:41:17;;;;;;;5.00;3.60;;;;;;;5.30;27.28;98061.55;110044;1248;68728;-66
2022/03/10 08:43:47;;;;;;;4.60;3.20;;;;;;;5.23;26.83;98062.70;110097;1248;58947;-67
2022/03/10 08:46:18;;;;;;;4.00;3.20;;;;;;;5.12;26.88;98066.60;110256;1247;59250;-65
2022/03/10 08:48:48;;;;;;;5.50;4.30;;;;;;;5.21;26.44;98069.51;110270;1247;69954;-66
2022/03/10 08:51:17;;;;;;;5.00;4.10;;;;;;;4.80;26.74;98066.16;110289;1247;68513;-62
2022/03/10 08:53:46;;;;;;;4.80;4.20;;;;;;;4.55;27.36;98069.52;110075;1247;69449;-61
2022/03/10 08:56:15;;;;;;;5.10;3.70;;;;;;;4.69;27.09;98065.38;110143;1245;58875;-61
2022/03/10 08:58:45;;;;;;;6.20;4.10;;;;;;;4.78;26.97;98063.31;110361;1247;58940;-63
2022/03/10 09:01:14;;;;;;;6.60;4.30;;;;;;;4.85;27.24;98064.55;110077;1246;70059;-63
2022/03/10 09:03:52;;;;;;;5.20;3.90;;;;;;;5.33;27.22;98067.64;110335;1247;68603;-62
2022/03/10 09:06:21;;;;;;;5.40;3.90;;;;;;;6.04;26.15;98064.96;110416;1247;68534;-64
2022/03/10 09:08:51;;;;;;;6.50;4.40;;;;;;;7.04;25.17;98067.64;110213;1246;58886;-65
2022/03/10 09:11:21;;;;;;;6.30;3.60;;;;;;;7.08;23.28;98066.23;110337;1247;58866;-66
2022/03/10 09:13:51;;;;;;;4.60;3.30;;;;;;;6.77;23.10;98065.48;110268;1245;70722;-63
2022/03/10 09:16:22;;;;;;;3.60;2.40;;;;;;;6.56;24.14;98077.38;110309;1245;67696;-65
2022/03/10 09:18:52;;;;;;;5.20;3.90;;;;;;;6.16;23.66;98077.62;110035;1247;69754;-66
2022/03/10 09:21:22;;;;;;;4.70;4.00;;;;;;;5.63;24.56;98080.73;110381;1245;58951;-63
2022/03/10 09:23:51;;;;;;;5.50;4.40;;;;;;;5.00;25.32;98078.64;110185;1247;58851;-63
2022/03/10 09:26:21;;;;;;;5.20;3.70;;;;;;;4.52;26.16;98078.80;110445;1245;70761;-64
2022/03/10 09:28:51;;;;;;;6.10;4.50;;;;;;;4.37;26.85;98077.14;110037;1247;67745;-63
2022/03/10 09:31:20;;;;;;;7.20;4.30;;;;;;;4.21;27.39;98078.40;110373;1247;69613;-63
2022/03/10 09:33:50;;;;;;;6.10;3.70;;;;;;;4.33;27.37;98085.36;110072;1246;58921;-62
2022/03/10 09:36:19;;;;;;;4.60;3.10;;;;;;;4.58;27.29;98087.53;110135;1247;58869;-62
2022/03/10 09:38:49;;;;;;;3.60;2.80;;;;;;;5.34;27.15;98085.56;110348;1247;69993;-63
2022/03/10 09:41:19;;;;;;;4.70;3.40;;;;;;;6.42;24.88;98078.34;110102;1247;69234;-64
2022/03/10 09:43:49;;;;;;;4.60;3.50;;;;;;;7.11;24.07;98076.48;110326;1245;68745;-63
2022/03/10 09:46:25;;;;;;;4.90;3.40;;;;;;;7.39;23.10;98076.34;110280;1247;58951;-62
2022/03/10 09:48:54;;;;;;;4.80;3.50;;;;;;;7.67;23.20;98075.31;110058;1247;58866;-65
2022/03/10 09:51:25;;;;;;;7.20;4.70;;;;;;;7.80;22.88;98077.59;110022;1247;70833;-63
2022/03/10 09:53:54;;;;;;;;;;;;;;;7.93;22.91;98078.14;110307;1247;67917;-63
2022/03/10 09:56:24;;;;;;;4.90;3.90;;;;;;;8.81;21.99;98071.91;110275;1245;68520;-64
2022/03/10 09:58:53;;;;;;;7.60;4.80;;;;;;;9.71;21.27;98076.18;110305;1247;59460;-63
2022/03/10 10:01:22;;;;;;;4.40;3.20;;;;;;;9.96;20.33;98074.33;110137;1246;58918;-66
2022/03/10 10:03:53;;;;;;;5.30;4.40;;;;;;;10.53;19.19;98065.70;110168;1247;69793;-66
2022/03/10 10:06:22;;;;;;;6.00;4.10;;;;;;;10.92;18.77;98065.15;110369;1247;68369;-64
2022/03/10 10:08:56;;;;;;;5.50;3.90;;;;;;;11.27;17.62;98060.05;110158;1247;70034;-63
2022/03/10 10:11:34;;;;;;;5.00;3.60;;;;;;;11.33;17.47;98057.39;110267;1247;58894;-62
2022/03/10 10:14:03;;;;;;;5.80;4.30;;;;;;;11.37;17.02;98050.90;110066;1247;58920;-63
2022/03/10 10:16:47;;;;;;;4.00;2.80;;;;;;;10.65;18.20;98057.59;110138;1247;70835;-62
2022/03/10 10:19:17;;;;;;;7.00;4.00;;;;;;;10.60;18.56;98058.09;110312;1246;67775;-62
2022/03/10 10:22:08;;;;;;;5.00;3.50;;;;;;;9.68;18.98;98063.80;110095;1246;68477;-65
2022/03/10 10:24:38;;;;;;;4.20;3.10;;;;;;;8.60;18.71;98061.91;110361;1247;58883;-63
2022/03/10 10:27:17;;;;;;;3.80;2.90;;;;;;;8.11;19.39;98067.11;110106;1247;58911;-64
2022/03/10 10:29:54;;;;;;;4.60;2.80;;;;;;;7.64;19.41;98066.58;110322;1244;70855;-64
2022/03/10 10:32:35;;;;;;;3.10;2.80;;;;;;;6.67;20.83;98071.32;110385;1246;68599;-63
2022/03/10 10:35:08;;;;;;;4.00;2.90;;;;;;;5.89;22.09;98082.39;110136;1247;68663;-64
2022/03/10 10:37:42;;;;;;;3.50;2.80;;;;;;;5.23;23.48;98081.86;110404;1245;58963;-65
2022/03/10 10:40:28;;;;;;;4.60;3.00;;;;;;;4.68;24.77;98078.36;110345;1247;58924;-65
2022/03/10 10:42:57;;;;;;;3.30;2.50;;;;;;;4.51;24.37;98076.77;110136;1246;70227;-63
2022/03/10 10:45:31;;;;;;;3.00;2.40;;;;;;;4.24;24.90;98082.61;110398;1247;68836;-62
2022/03/10 10:48:00;;;;;;;3.50;2.50;;;;;;;4.07;24.74;98085.12;110153;1247;68442;-64
2022/03/10 10:50:35;;;;;;;3.70;2.30;;;;;;;3.95;24.88;98080.20;110310;1247;58947;-62
2022/03/10 10:53:05;;;;;;;2.90;2.50;;;;;;;4.20;24.84;98079.13;110423;1246;58909;-62
2022/03/10 10:55:38;;;;;;;3.80;2.50;;;;;;;4.52;24.71;98074.65;110091;1247;70715;-63
2022/03/10 10:58:16;;;;;;;4.90;3.40;;;;;;;5.18;24.45;98075.52;110137;1247;68542;-64
2022/03/10 11:00:47;;;;;;;4.70;3.00;;;;;;;5.89;22.95;98073.40;110277;1247;68735;-63
2022/03/10 11:03:28;;;;;;;3.60;3.20;;;;;;;7.04;21.77;98069.56;110122;1247;58944;-67
2022/03/10 11:05:59;;;;;;;4.20;3.40;;;;;;;7.86;21.51;98074.33;110403;1247;58892;-64
2022/03/10 11:08:28;;;;;;;4.40;3.30;;;;;;;7.85;20.94;98069.02;110461;1246;71949;-67
2022/03/10 11:11:00;;;;;;;5.10;3.20;;;;;;;7.44;20.89;98065.02;110398;1244;68215;-65
2022/03/10 11:13:30;;;;;;;;;;;;;;;7.20;21.45;98066.37;110207;1245;68675;-67
2022/03/10 11:16:07;;;;;;;4.70;3.10;;;;;;;6.70;21.20;98065.45;110402;1244;58900;-68
2022/03/10 11:18:41;;;;;;;5.30;3.10;;;;;;;6.08;21.74;98071.92;110157;1245;58883;-67
2022/03/10 11:21:34;;;;;;;4.70;3.60;;;;;;;6.26;21.50;98064.00;110223;1247;71184;-66
2022/03/10 11:24:26;;;;;;;3.70;2.80;;;;;;;6.13;21.47;98066.15;110415;1244;67691;-66
2022/03/10 11:27:07;;;;;;;3.50;2.70;;;;;;;5.90;21.75;98066.79;110151;1247;70111;-64
2022/03/10 11:29:38;;;;;;;5.50;4.10;;;;;;;6.03;22.00;98065.56;110153;1247;58896;-64
2022/03/10 11:32:10;;;;;;;5.20;4.00;;;;;;;6.23;21.93;98062.42;110023;1244;58917;-63
2022/03/10 11:34:47;;;;;;;5.40;3.30;;;;;;;6.12;22.47;98065.16;110103;1245;70803;-63
2022/03/10 11:37:44;;;;;;;4.50;3.40;;;;;;;6.00;22.79;98066.90;110442;1244;67805;-62
2022/03/10 11:40:16;;;;;;;4.40;3.30;;;;;;;5.83;22.48;98064.51;110388;1245;68641;-65
2022/03/10 11:42:46;;;;;;;9.80;5.70;;;;;;;5.63;22.24;98060.69;110180;1247;58884;-65
2022/03/10 11:45:16;;;;;;;9.30;4.90;;;;;;;5.38;23.39;98066.76;110454;1245;58872;-63
2022/03/10 11:47:47;;;;;;;7.90;3.90;;;;;;;5.57;23.06;98063.88;110344;1245;69924;-61
2022/03/10 11:50:22;;;;;;;5.30;3.40;;;;;;;6.51;22.21;98058.33;110352;1247;68690;-63
2022/03/10 11:52:55;;;;;;;3.50;2.60;;;;;;;8.60;20.62;98054.92;110336;1245;68590;-62